Time;durP1;ratioP1;P1;durP2;ratioP2;P2;SDS_P1;SDS_P2;PMS_P1;PMS_P2;Temp;Humidity;BMP_temperature;BMP_pressure;BME280_temperature;BME280_humidity;BME280_pressure;Samples;Min_cycle;Max_cycle;Signal;HPM_P1;HPM_P2
2021/03/18 00:02:39;;;;;;;13.8;6.2;;;;;;;1.8;89.20605;98831.03;;;;
2021/03/18 00:12:37;;;;;;;10.6;7.2;;;;;;;1.79;89.52344;98827.56;;;;
2021/03/18 00:22:35;;;;;;;12;7.7;;;;;;;1.78;89.33496;98827.8;;;;
2021/03/18 00:32:34;;;;;;;8.6;6.1;;;;;;;1.75;89.54883;98830.95;;;;
2021/03/18 00:42:34;;;;;;;10.8;5.7;;;;;;;1.76;89.80469;98819.28;;;;
2021/03/18 00:52:29;;;;;;;11.3;6.5;;;;;;;1.68;90.8877;98820.5;;;;
2021/03/18 01:02:27;;;;;;;10.7;5.6;;;;;;;1.63;91.09668;98811.66;;;;
2021/03/18 01:12:25;;;;;;;9;6;;;;;;;1.6;91.02539;98810.27;;;;
2021/03/18 01:22:23;;;;;;;9.7;5.8;;;;;;;1.61;90.7627;98795.95;;;;
2021/03/18 01:32:20;;;;;;;10.9;7.3;;;;;;;1.49;90.78223;98808.55;;;;
2021/03/18 01:42:18;;;;;;;11.8;7.4;;;;;;;1.46;90.88672;98807.16;;;;
2021/03/18 01:52:16;;;;;;;12.3;7.2;;;;;;;1.32;91.70313;98797.91;;;;
2021/03/18 02:02:14;;;;;;;12.3;6.9;;;;;;;1.18;92.49609;98804.59;;;;
2021/03/18 02:12:12;;;;;;;12;6.4;;;;;;;1.18;92.75977;98809.13;;;;
2021/03/18 02:22:10;;;;;;;11.1;6.4;;;;;;;1.11;93.54395;98813.78;;;;
2021/03/18 02:32:08;;;;;;;15.5;9.4;;;;;;;1.06;94.77539;98811.03;;;;
2021/03/18 02:42:05;;;;;;;11.4;6.7;;;;;;;1.01;96.1582;98811.74;;;;
2021/03/18 02:52:03;;;;;;;9.8;6.5;;;;;;;1.06;96.18164;98817.15;;;;
2021/03/18 03:02:01;;;;;;;9.5;7.5;;;;;;;1.08;96.78906;98817.7;;;;
2021/03/18 03:11:59;;;;;;;11.8;8.3;;;;;;;0.85;97.10938;98786.81;;;;
2021/03/18 03:21:56;;;;;;;18.2;10.9;;;;;;;1.13;97.00781;98825.76;;;;
2021/03/18 03:31:54;;;;;;;12.8;10.2;;;;;;;1.15;97.06641;98820.19;;;;
2021/03/18 03:41:52;;;;;;;13.3;9.5;;;;;;;1.08;98.55469;98823.01;;;;
2021/03/18 03:51:50;;;;;;;13.8;10.5;;;;;;;1.16;98.64746;98832.42;;;;
2021/03/18 04:01:48;;;;;;;14.9;11.8;;;;;;;1.17;98.98926;98834.05;;;;
2021/03/18 04:11:45;;;;;;;13.6;12.2;;;;;;;1.02;100;98842.55;;;;
2021/03/18 04:21:43;;;;;;;18;11.6;;;;;;;0.78;100;98854.33;;;;
2021/03/18 04:31:41;;;;;;;17.2;12.7;;;;;;;0.69;100;98848.61;;;;
2021/03/18 04:41:39;;;;;;;16.4;12.3;;;;;;;0.52;100;98865.51;;;;
2021/03/18 04:51:36;;;;;;;12.8;10.7;;;;;;;0.3;100;98865.33;;;;
2021/03/18 05:01:34;;;;;;;10.7;7.9;;;;;;;0.21;100;98866.75;;;;
2021/03/18 05:11:32;;;;;;;13.4;8.8;;;;;;;0.12;100;98865.48;;;;
2021/03/18 05:21:30;;;;;;;11.3;7.3;;;;;;;0.1;100;98871.02;;;;
2021/03/18 05:31:28;;;;;;;14.6;10.6;;;;;;;0.02;100;98878.51;;;;
2021/03/18 05:41:25;;;;;;;9.1;8.2;;;;;;;0.2;100;98876.53;;;;
2021/03/18 05:51:22;;;;;;;10.7;8.2;;;;;;;0.31;100;98888.16;;;;
2021/03/18 06:01:20;;;;;;;14.1;11.2;;;;;;;0.38;100;98894.14;;;;
2021/03/18 06:11:17;;;;;;;16.5;10.8;;;;;;;0.57;100;98898.22;;;;
2021/03/18 06:21:15;;;;;;;16.6;12.8;;;;;;;0.76;100;98909.47;;;;
2021/03/18 06:31:13;;;;;;;13;9.2;;;;;;;0.87;99.75586;98912.06;;;;
2021/03/18 06:41:10;;;;;;;15.9;10.1;;;;;;;0.87;97.80566;98920.02;;;;
2021/03/18 06:51:08;;;;;;;13.7;9;;;;;;;1.07;95.41504;98924.92;;;;
2021/03/18 07:01:06;;;;;;;12.6;7;;;;;;;1.1;92.94043;98929.75;;;;
2021/03/18 07:11:03;;;;;;;16.2;9.9;;;;;;;1.67;92.70117;98925.14;;;;
2021/03/18 07:21:01;;;;;;;20.7;9.7;;;;;;;1.9;89.79004;98930.31;;;;
2021/03/18 07:30:59;;;;;;;10;6.2;;;;;;;1.47;88.30273;98922.97;;;;
2021/03/18 07:40:57;;;;;;;10.4;5;;;;;;;1.88;85.67578;98924.41;;;;
2021/03/18 07:50:55;;;;;;;7.7;5.5;;;;;;;1.95;84.39941;98922.39;;;;
2021/03/18 08:00:52;;;;;;;11.3;4.9;;;;;;;2.3;81.86133;98924.75;;;;
2021/03/18 08:10:50;;;;;;;9;6;;;;;;;2.81;80.06445;98914.77;;;;
2021/03/18 08:21:01;;;;;;;9.7;6;;;;;;;2.53;79.55859;98929.06;;;;
2021/03/18 08:30:46;;;;;;;6;3.9;;;;;;;1.76;71.51074;98920.24;;;;
2021/03/18 08:40:44;;;;;;;7.6;3.8;;;;;;;2.06;72.3125;98906.59;;;;
2021/03/18 08:50:46;;;;;;;18.2;2.6;;;;;;;2.4;69.73047;98910.78;;;;
2021/03/18 09:00:39;;;;;;;3.6;2.3;;;;;;;2.52;67.60938;98920.27;;;;
2021/03/18 09:10:37;;;;;;;2.7;1.3;;;;;;;2.96;66.60156;98905.07;;;;
2021/03/18 09:20:35;;;;;;;4.6;2;;;;;;;3.73;68.8125;98890.58;;;;
2021/03/18 09:30:33;;;;;;;4.9;2.3;;;;;;;4.11;65.80859;98892.97;;;;
2021/03/18 09:40:36;;;;;;;4.4;1.8;;;;;;;3.78;65.49121;98891.44;;;;
2021/03/18 09:50:32;;;;;;;2.6;1.4;;;;;;;3.62;62.91406;98880.89;;;;
2021/03/18 10:00:30;;;;;;;4.1;2.1;;;;;;;3.79;63.12891;98876.22;;;;
2021/03/18 10:10:25;;;;;;;4.5;2.2;;;;;;;3.44;62.33105;98879.41;;;;
2021/03/18 10:20:25;;;;;;;6.6;3.4;;;;;;;3.43;63.92285;98867.17;;;;
2021/03/18 10:30:21;;;;;;;5;1.6;;;;;;;3.75;62.59961;98859.16;;;;
2021/03/18 10:40:21;;;;;;;4.8;2.3;;;;;;;4.54;59.98633;98851.83;;;;
2021/03/18 10:50:17;;;;;;;1.7;1.3;;;;;;;4.81;57.2373;98832.95;;;;
2021/03/18 11:00:15;;;;;;;4.2;1.4;;;;;;;4.52;58.08301;98849.41;;;;
2021/03/18 11:10:14;;;;;;;6.4;2.8;;;;;;;3.65;61.41309;98845.73;;;;
2021/03/18 11:20:11;;;;;;;4.4;1.9;;;;;;;3.59;61.01465;98831.58;;;;
2021/03/18 11:30:09;;;;;;;4.5;2.6;;;;;;;3.86;59.42285;98837.62;;;;
2021/03/18 11:40:08;;;;;;;5;2.7;;;;;;;5.35;58.35254;98807.34;;;;
2021/03/18 11:50:06;;;;;;;5;2.5;;;;;;;4.81;55.97168;98819.59;;;;
2021/03/18 12:00:04;;;;;;;6.2;2.1;;;;;;;4.03;58.06152;98808.11;;;;
2021/03/18 12:10:02;;;;;;;4.7;2.6;;;;;;;4.47;60.32324;98819.25;;;;
2021/03/18 12:20:00;;;;;;;7.9;4.1;;;;;;;3.87;57.72656;98790.44;;;;
2021/03/18 12:29:58;;;;;;;7;2.9;;;;;;;4.35;56.91895;98776.77;;;;
2021/03/18 12:39:56;;;;;;;4.6;3;;;;;;;4.95;55.11621;98753.92;;;;
2021/03/18 12:49:54;;;;;;;4.6;2.7;;;;;;;4.98;58.13477;98756.86;;;;
2021/03/18 12:59:52;;;;;;;5.7;3;;;;;;;4.18;58.03613;98756.7;;;;
2021/03/18 13:09:51;;;;;;;6.5;3.5;;;;;;;3.88;56.29883;98763.53;;;;
2021/03/18 13:19:49;;;;;;;6.7;4.2;;;;;;;4.18;58.43848;98735.36;;;;
2021/03/18 13:29:47;;;;;;;6.8;3.5;;;;;;;3.94;55.34375;98748.34;;;;
2021/03/18 13:39:45;;;;;;;8.7;5.9;;;;;;;3.75;56.13574;98734.66;;;;
2021/03/18 13:49:43;;;;;;;10;4.7;;;;;;;3.83;55.31934;98730.7;;;;
2021/03/18 13:59:41;;;;;;;7;4.2;;;;;;;3.64;54.63574;98722.36;;;;
2021/03/18 14:09:39;;;;;;;9.6;6.7;;;;;;;4.03;57.7373;98720.11;;;;
2021/03/18 14:19:37;;;;;;;7.6;5.2;;;;;;;3.19;58.80566;98727.42;;;;
2021/03/18 14:29:35;;;;;;;9.3;5;;;;;;;3.84;57.85742;98717.13;;;;
2021/03/18 14:39:33;;;;;;;10.2;6.8;;;;;;;4.21;56.39648;98690.3;;;;
2021/03/18 14:49:31;;;;;;;9;5.7;;;;;;;3.41;57.62109;98691.59;;;;
2021/03/18 14:59:29;;;;;;;9.1;6.5;;;;;;;3.04;58.68555;98688.17;;;;
2021/03/18 15:09:29;;;;;;;9.4;6.7;;;;;;;3.03;59.54395;98671.39;;;;
2021/03/18 15:19:24;;;;;;;132.2;99.3;;;;;;;3.6;56.11621;98675.97;;;;
2021/03/18 15:29:22;;;;;;;112.5;88.8;;;;;;;3.64;54.53516;98674.39;;;;
2021/03/18 15:39:20;;;;;;;89.1;54.8;;;;;;;3.55;54.14258;98667.94;;;;
2021/03/18 15:49:18;;;;;;;17.1;12.9;;;;;;;2.99;55.24414;98666.82;;;;
2021/03/18 15:59:16;;;;;;;11.5;9.9;;;;;;;3.24;55.48828;98668.84;;;;
2021/03/18 16:09:14;;;;;;;7.4;4;;;;;;;2.94;57.0332;98666.8;;;;
2021/03/18 16:19:12;;;;;;;8.9;5.6;;;;;;;3.23;56.66992;98673.36;;;;
2021/03/18 16:29:10;;;;;;;8.3;5.3;;;;;;;2.59;58.40137;98667.34;;;;
2021/03/18 16:39:08;;;;;;;8.4;4.9;;;;;;;2.16;59.13281;98670.92;;;;
2021/03/18 16:49:05;;;;;;;9;4.6;;;;;;;1.69;61.36523;98672.54;;;;
2021/03/18 16:59:03;;;;;;;9.1;5.9;;;;;;;1.42;61.68262;98673.26;;;;
2021/03/18 17:09:01;;;;;;;14.6;11.3;;;;;;;1.05;62.49316;98672.22;;;;
2021/03/18 17:18:59;;;;;;;26.6;19.2;;;;;;;0.59;63.8418;98672.59;;;;
2021/03/18 17:28:56;;;;;;;12.3;8.3;;;;;;;0.35;65.24414;98678.02;;;;
2021/03/18 17:38:54;;;;;;;10.2;5.8;;;;;;;0.04;66.44434;98672.41;;;;
2021/03/18 17:48:51;;;;;;;12.1;8.8;;;;;;;-0.25;67.32617;98671.63;;;;
2021/03/18 17:58:49;;;;;;;34.3;25.7;;;;;;;-0.64;68.4668;98676.67;;;;
2021/03/18 18:08:46;;;;;;;78.7;53.8;;;;;;;-0.81;69.78125;98674.97;;;;
2021/03/18 18:18:44;;;;;;;54;40.1;;;;;;;-1.01;70.10254;98670.83;;;;
2021/03/18 18:28:41;;;;;;;13.3;8.5;;;;;;;-1.26;71.2041;98664.98;;;;
2021/03/18 18:38:38;;;;;;;17.7;13.7;;;;;;;-1.6;73.16602;98668.41;;;;
2021/03/18 18:48:36;;;;;;;19.6;12.6;;;;;;;-1.81;75.06055;98653.88;;;;
2021/03/18 18:58:33;;;;;;;27.4;22.6;;;;;;;-2.08;76.35156;98661.36;;;;
2021/03/18 19:08:30;;;;;;;22.7;15.5;;;;;;;-2.45;77.04883;98666.94;;;;
2021/03/18 19:18:30;;;;;;;14.3;9.1;;;;;;;-2.77;77.9209;98667.1;;;;
2021/03/18 19:28:25;;;;;;;13.6;8.3;;;;;;;-3.02;78.98926;98668.2;;;;
2021/03/18 19:38:23;;;;;;;26.6;21.2;;;;;;;-3.2;81.24805;98669.79;;;;
2021/03/18 19:48:20;;;;;;;17;15;;;;;;;-3.28;84.85156;98675.33;;;;
2021/03/18 19:58:17;;;;;;;20.8;15.5;;;;;;;-3.47;84.81445;98665.75;;;;
2021/03/18 20:08:14;;;;;;;31.6;18.2;;;;;;;-3.68;84.83594;98677.46;;;;
2021/03/18 20:18:12;;;;;;;34.6;22.7;;;;;;;-3.81;86.2041;98674.93;;;;
2021/03/18 20:28:08;;;;;;;41.1;27.1;;;;;;;-3.93;86.2207;98675.84;;;;
2021/03/18 20:38:05;;;;;;;45.4;29.3;;;;;;;-3.98;88.18066;98673.83;;;;
2021/03/18 20:48:02;;;;;;;37.2;27.5;;;;;;;-4.02;88.49707;98662.11;;;;
2021/03/18 20:58:00;;;;;;;35.3;25.1;;;;;;;-4.1;89.44629;98665.82;;;;
2021/03/18 21:07:57;;;;;;;49.1;31.6;;;;;;;-4.27;89.5625;98664.67;;;;
2021/03/18 21:17:54;;;;;;;33.9;25.3;;;;;;;-4.4;90.30664;98667.38;;;;
2021/03/18 21:27:51;;;;;;;34.9;29.1;;;;;;;-4.4;91.59766;98667.38;;;;
2021/03/18 21:37:48;;;;;;;52.9;33.4;;;;;;;-4.41;92.10352;98657.89;;;;
2021/03/18 21:47:46;;;;;;;53.4;39.4;;;;;;;-4.39;92.2041;98660.3;;;;
2021/03/18 21:57:42;;;;;;;57.4;34.9;;;;;;;-4.35;93.38477;98651.79;;;;
2021/03/18 22:07:39;;;;;;;54.6;32.8;;;;;;;-4.2;93.24512;98644.4;;;;
2021/03/18 22:17:36;;;;;;;52.7;37.6;;;;;;;-3.95;92.63672;98643.64;;;;
2021/03/18 22:27:33;;;;;;;38.5;30.3;;;;;;;-3.68;93.21777;98637.96;;;;
2021/03/18 22:37:30;;;;;;;45.4;30.2;;;;;;;-3.4;91.97656;98640.16;;;;
2021/03/18 22:47:30;;;;;;;49.2;33.3;;;;;;;-3.15;91.22461;98634.86;;;;
2021/03/18 22:57:24;;;;;;;46.1;28.6;;;;;;;-3;90.63672;98629.23;;;;
2021/03/18 23:07:22;;;;;;;44.8;31;;;;;;;-2.87;90.02148;98634.36;;;;
2021/03/18 23:17:25;;;;;;;49;33.7;;;;;;;-2.78;89.22266;98627.78;;;;
2021/03/18 23:27:16;;;;;;;42.4;31.3;;;;;;;-2.77;88.62793;98635.45;;;;
2021/03/18 23:37:13;;;;;;;42.4;28;;;;;;;-2.73;87.82813;98630.55;;;;
2021/03/18 23:47:10;;;;;;;42.1;29.6;;;;;;;-2.82;88.01855;98627.41;;;;
2021/03/18 23:57:08;;;;;;;50.6;30.6;;;;;;;-2.91;89.21875;98643.73;;;;
